Time;durP1;ratioP1;P1;durP2;ratioP2;P2;SDS_P1;SDS_P2;PMS_P1;PMS_P2;Temp;Humidity;BMP_temperature;BMP_pressure;BME280_temperature;BME280_humidity;BME280_pressure;Samples;Min_cycle;Max_cycle;Signal;HPM_P1;HPM_P2
2022/03/19 00:01:37;;;;;;;26.15;13.77;;;;;;;7.32;61.80;103341.66;5072259;28;20025;-66
2022/03/19 00:04:03;;;;;;;26.02;12.40;;;;;;;7.33;61.70;103344.31;5073075;28;20435;-66
2022/03/19 00:06:28;;;;;;;24.60;12.90;;;;;;;7.41;61.76;103348.13;5073389;28;20060;-66
2022/03/19 00:08:54;;;;;;;26.73;14.57;;;;;;;7.46;61.81;103345.72;5073547;28;20493;-66
2022/03/19 00:11:22;;;;;;;29.15;15.27;;;;;;;7.50;61.79;103347.63;5071770;28;20044;-66
2022/03/19 00:13:47;;;;;;;29.98;15.00;;;;;;;7.47;61.95;103344.88;5071728;28;20178;-66
2022/03/19 00:16:13;;;;;;;28.80;14.10;;;;;;;7.39;62.61;103348.91;5071889;28;20036;-66
2022/03/19 00:18:38;;;;;;;30.17;14.30;;;;;;;7.23;62.71;103347.44;5073073;28;20511;-66
2022/03/19 00:21:04;;;;;;;23.02;12.77;;;;;;;7.35;62.41;103347.91;5071472;28;20047;-66
2022/03/19 00:23:30;;;;;;;29.05;14.90;;;;;;;7.37;62.58;103347.94;5070650;28;20044;-66
2022/03/19 00:25:56;;;;;;;24.70;14.45;;;;;;;7.37;62.68;103347.94;5070368;28;20041;-67
2022/03/19 00:28:21;;;;;;;24.92;13.93;;;;;;;7.36;62.66;103349.69;5071829;28;20497;-65
2022/03/19 00:30:47;;;;;;;25.52;13.95;;;;;;;7.28;63.26;103347.59;5071632;28;20113;-66
2022/03/19 00:33:12;;;;;;;26.50;12.85;;;;;;;7.20;63.45;103344.69;5071202;28;20392;-66
2022/03/19 00:35:38;;;;;;;21.75;11.23;;;;;;;7.20;63.45;103349.03;5072889;28;20037;-65
2022/03/19 00:38:04;;;;;;;17.42;9.75;;;;;;;7.26;63.16;103344.03;5073423;28;20555;-65
2022/03/19 00:40:32;;;;;;;22.17;11.13;;;;;;;7.30;63.00;103351.16;5072787;28;20443;-66
2022/03/19 00:42:57;;;;;;;24.42;13.27;;;;;;;7.36;62.73;103351.41;5069750;28;20028;-66
2022/03/19 00:45:23;;;;;;;26.17;12.68;;;;;;;7.31;63.27;103353.84;5072652;28;20025;-65
2022/03/19 00:47:48;;;;;;;25.88;12.00;;;;;;;7.36;62.80;103359.25;5071239;28;20488;-65
2022/03/19 00:50:14;;;;;;;26.25;13.32;;;;;;;7.35;63.06;103352.25;5073009;28;20035;-65
2022/03/19 00:52:40;;;;;;;24.02;12.45;;;;;;;7.34;62.95;103358.28;5073047;28;20063;-65
2022/03/19 00:55:07;;;;;;;22.98;12.07;;;;;;;7.34;63.32;103359.22;5071180;28;20106;-65
2022/03/19 00:57:44;;;;;;;26.85;12.23;;;;;;;7.22;64.54;103356.13;5054869;28;20036;-66
2022/03/19 01:00:11;;;;;;;19.50;10.65;;;;;;;7.34;63.33;103353.06;5071042;28;20032;-65
2022/03/19 01:02:40;;;;;;;22.35;10.93;;;;;;;7.47;63.11;103351.84;5071630;28;20365;-65
2022/03/19 01:05:06;;;;;;;22.85;11.57;;;;;;;7.53;62.74;103355.56;5071740;28;20066;-66
2022/03/19 01:07:31;;;;;;;20.17;10.32;;;;;;;7.64;62.62;103364.72;5071318;28;20559;-66
2022/03/19 01:09:56;;;;;;;22.48;11.70;;;;;;;7.70;62.34;103357.91;5072516;28;20054;-65
2022/03/19 01:12:22;;;;;;;25.70;13.45;;;;;;;7.67;62.40;103358.72;5073212;28;20116;-65
2022/03/19 01:14:47;;;;;;;24.98;12.00;;;;;;;7.61;62.75;103369.81;5074728;28;20082;-65
2022/03/19 01:17:13;;;;;;;26.33;11.48;;;;;;;7.61;62.97;103363.69;5076226;28;20041;-65
2022/03/19 01:19:53;;;;;;;22.38;10.38;;;;;;;7.50;63.57;103358.09;5076510;28;20060;-65
2022/03/19 01:22:21;;;;;;;21.13;9.70;;;;;;;7.35;64.65;103370.56;5074257;28;20464;-65
2022/03/19 01:24:47;;;;;;;24.83;10.50;;;;;;;7.29;64.49;103360.72;5076283;28;20041;-65
2022/03/19 01:27:13;;;;;;;16.05;9.00;;;;;;;7.21;65.07;103361.25;5054127;28;20533;-65
2022/03/19 01:29:38;;;;;;;21.00;10.55;;;;;;;7.03;65.97;103362.34;5055960;28;20037;-66
2022/03/19 01:32:04;;;;;;;22.20;9.75;;;;;;;6.90;66.38;103363.56;5063646;28;20028;-66
2022/03/19 01:34:30;;;;;;;24.63;10.63;;;;;;;6.81;67.40;103362.28;5071306;28;20095;-65
2022/03/19 01:36:55;;;;;;;18.80;9.55;;;;;;;6.79;66.69;103367.44;5062223;28;20400;-65
2022/03/19 01:39:21;;;;;;;20.05;9.43;;;;;;;6.69;67.82;103370.50;5075533;28;20055;-65
2022/03/19 01:41:46;;;;;;;21.02;9.68;;;;;;;6.65;68.02;103369.47;5074533;28;20468;-65
2022/03/19 01:44:19;;;;;;;21.98;10.60;;;;;;;6.58;69.35;103366.53;5075661;28;20397;-65
2022/03/19 01:47:10;;;;;;;19.10;9.43;;;;;;;6.59;70.16;103371.84;5057674;28;20044;-65
2022/03/19 01:49:37;;;;;;;21.55;9.85;;;;;;;6.62;68.62;103363.22;5075161;28;20071;-65
2022/03/19 01:52:05;;;;;;;22.92;9.63;;;;;;;6.62;68.93;103371.97;5073692;28;20047;-66
2022/03/19 01:54:40;;;;;;;21.13;9.82;;;;;;;6.59;69.59;103365.72;5073914;28;20072;-66
2022/03/19 01:57:07;;;;;;;18.40;9.38;;;;;;;6.58;68.93;103362.22;5075606;28;20115;-66
2022/03/19 01:59:36;;;;;;;20.52;9.75;;;;;;;6.55;69.48;103358.59;5075690;28;20028;-66
2022/03/19 02:02:05;;;;;;;20.60;9.20;;;;;;;6.62;69.19;103363.22;5074726;28;20093;-66
2022/03/19 02:04:33;;;;;;;22.17;10.30;;;;;;;6.58;69.89;103362.22;5106987;28;20041;-66
2022/03/19 02:06:59;;;;;;;21.90;9.57;;;;;;;6.69;69.43;103359.16;5074244;28;20033;-66
2022/03/19 02:09:25;;;;;;;15.20;8.45;;;;;;;6.83;68.71;103366.75;5075374;28;20044;-66
2022/03/19 02:11:51;;;;;;;21.08;9.00;;;;;;;6.96;68.52;103365.53;5074954;28;20409;-66
2022/03/19 02:14:18;;;;;;;18.67;8.85;;;;;;;6.99;68.55;103364.75;5074315;28;20033;-66
2022/03/19 02:16:44;;;;;;;22.58;9.98;;;;;;;6.90;69.13;103354.78;5057268;28;20035;-66
2022/03/19 02:19:10;;;;;;;18.25;8.77;;;;;;;6.99;68.50;103349.97;5073501;28;20051;-67
2022/03/19 02:21:43;;;;;;;19.85;8.90;;;;;;;6.94;69.49;103363.66;5075153;28;20460;-67
2022/03/19 02:26:55;;;;;;;17.92;8.27;;;;;;;6.85;69.18;103357.22;5067329;28;20431;-66
2022/03/19 02:29:20;;;;;;;19.65;9.25;;;;;;;6.87;69.10;103357.31;5087493;28;20465;-66
2022/03/19 02:31:49;;;;;;;18.75;8.73;;;;;;;6.76;69.73;103364.69;5055349;28;20033;-66
2022/03/19 02:34:14;;;;;;;18.08;7.40;;;;;;;6.76;69.84;103362.09;5072901;28;20480;-67
2022/03/19 02:36:42;;;;;;;14.57;8.15;;;;;;;6.71;70.30;103367.97;5074729;28;20045;-66
2022/03/19 02:39:13;;;;;;;18.55;8.70;;;;;;;6.71;70.15;103362.75;5074527;28;20032;-66
2022/03/19 02:41:48;;;;;;;21.45;9.15;;;;;;;6.64;70.81;103362.47;5075054;28;20052;-66
2022/03/19 02:44:18;;;;;;;20.40;9.30;;;;;;;6.58;70.28;103350.84;5072867;28;20029;-66
2022/03/19 02:46:55;;;;;;;24.83;9.68;;;;;;;6.59;70.96;103356.16;5073294;28;20551;-65
2022/03/19 02:49:22;;;;;;;18.27;9.30;;;;;;;6.63;70.17;103360.69;5074619;28;20072;-66
2022/03/19 02:51:50;;;;;;;19.17;9.15;;;;;;;6.53;71.03;103352.38;5069236;28;20033;-66
2022/03/19 02:54:18;;;;;;;23.08;10.38;;;;;;;6.45;71.71;103357.28;5053070;28;20048;-66
2022/03/19 02:56:44;;;;;;;21.27;10.40;;;;;;;6.50;70.97;103360.97;5059550;28;20029;-66
2022/03/19 02:59:12;;;;;;;24.27;9.68;;;;;;;6.48;71.17;103359.16;5072905;28;20085;-66
2022/03/19 03:01:41;;;;;;;21.95;10.88;;;;;;;6.45;71.30;103357.28;5053129;28;20033;-66
2022/03/19 03:04:07;;;;;;;23.75;10.95;;;;;;;6.48;71.63;103362.66;5037359;28;20029;-66
2022/03/19 03:06:38;;;;;;;20.95;11.65;;;;;;;6.49;71.83;103367.03;5074238;28;20105;-66
2022/03/19 03:09:04;;;;;;;23.02;11.57;;;;;;;6.53;71.22;103376.78;5072988;28;20078;-66
2022/03/19 03:11:31;;;;;;;26.35;13.60;;;;;;;6.47;72.01;103371.31;5068745;28;20055;-66
2022/03/19 03:13:57;;;;;;;22.60;12.15;;;;;;;6.56;71.67;103365.59;5052991;28;20025;-66
2022/03/19 03:16:25;;;;;;;27.00;13.05;;;;;;;6.50;72.03;103368.81;5071311;28;20414;-66
2022/03/19 03:18:50;;;;;;;28.13;14.82;;;;;;;6.40;72.74;103371.88;5072351;28;20082;-66
2022/03/19 03:21:16;;;;;;;25.30;14.25;;;;;;;6.43;72.57;103371.13;5073805;28;20040;-65
2022/03/19 03:23:41;;;;;;;25.85;14.07;;;;;;;6.40;72.57;103371.88;5074086;28;20036;-65
2022/03/19 03:26:07;;;;;;;28.50;14.48;;;;;;;6.46;72.58;103381.69;5071717;28;20033;-65
2022/03/19 03:28:32;;;;;;;27.05;14.68;;;;;;;6.52;71.93;103377.63;5073965;28;20040;-65
2022/03/19 03:30:58;;;;;;;28.48;14.82;;;;;;;6.55;72.00;103380.38;5073596;28;20421;-65
2022/03/19 03:33:23;;;;;;;31.70;15.45;;;;;;;6.39;73.16;103391.00;5073714;28;20043;-65
2022/03/19 03:35:49;;;;;;;33.97;16.90;;;;;;;6.38;73.00;103391.78;5073077;28;20403;-65
2022/03/19 03:38:15;;;;;;;30.55;15.95;;;;;;;6.29;73.43;103389.69;5071249;28;20036;-64
2022/03/19 03:40:41;;;;;;;30.65;15.25;;;;;;;6.34;73.59;103392.50;5073740;28;20384;-66
2022/03/19 03:43:08;;;;;;;32.53;15.13;;;;;;;6.31;73.61;103392.38;5072157;28;20039;-66
2022/03/19 03:45:33;;;;;;;31.35;14.85;;;;;;;6.25;73.99;103395.59;5072230;28;20032;-66
2022/03/19 03:47:59;;;;;;;31.42;15.52;;;;;;;6.23;74.05;103388.53;5072340;28;20027;-66
2022/03/19 03:50:24;;;;;;;25.52;14.05;;;;;;;6.33;73.46;103396.81;5073033;28;20064;-66
2022/03/19 03:52:50;;;;;;;25.60;14.10;;;;;;;6.34;73.45;103393.41;5073925;28;20119;-65
2022/03/19 03:55:15;;;;;;;28.17;13.80;;;;;;;6.44;72.85;103399.91;5072128;28;20063;-65
2022/03/19 03:57:40;;;;;;;25.60;13.70;;;;;;;6.46;73.04;103398.25;5039258;28;20040;-65
2022/03/19 04:00:10;;;;;;;21.92;12.10;;;;;;;6.56;72.10;103404.78;5072505;28;20083;-66
2022/03/19 04:02:37;;;;;;;22.17;12.55;;;;;;;6.54;72.14;103404.72;5069977;28;20060;-65
2022/03/19 04:05:04;;;;;;;23.15;11.90;;;;;;;6.58;72.23;103406.63;5071988;28;20506;-65
2022/03/19 04:07:30;;;;;;;26.35;12.48;;;;;;;6.60;72.30;103409.31;5068088;28;20032;-65
2022/03/19 04:09:55;;;;;;;27.48;13.57;;;;;;;6.65;72.05;103413.88;5051970;28;20045;-65
2022/03/19 04:12:22;;;;;;;31.30;13.70;;;;;;;6.69;71.90;103411.41;5064375;28;20089;-65
2022/03/19 04:14:52;;;;;;;26.10;13.07;;;;;;;6.66;72.12;103418.31;5071797;28;20496;-65
2022/03/19 04:17:18;;;;;;;24.42;13.70;;;;;;;6.70;71.54;103407.97;5073028;28;20472;-65
2022/03/19 04:19:43;;;;;;;26.45;13.40;;;;;;;6.75;71.44;103412.56;5072245;28;20036;-65
2022/03/19 04:22:09;;;;;;;25.92;12.90;;;;;;;6.81;71.23;103425.88;5071287;28;20024;-66
2022/03/19 04:24:34;;;;;;;20.08;11.13;;;;;;;6.89;70.87;103424.47;5073129;28;20033;-65
2022/03/19 04:27:00;;;;;;;24.35;11.90;;;;;;;6.98;70.64;103425.69;5073164;28;20379;-66
2022/03/19 04:29:26;;;;;;;27.27;14.75;;;;;;;6.95;70.91;103426.47;5073081;28;20040;-66
2022/03/19 04:31:51;;;;;;;23.10;12.57;;;;;;;7.02;70.52;103430.22;5071513;28;20032;-66
2022/03/19 04:34:17;;;;;;;19.20;10.35;;;;;;;7.08;70.23;103434.00;5072928;28;20384;-65
2022/03/19 04:36:42;;;;;;;21.83;12.50;;;;;;;6.94;70.85;103431.63;5072955;28;20090;-65
2022/03/19 04:39:08;;;;;;;23.58;12.70;;;;;;;6.91;70.90;103440.25;5054826;28;20028;-65
2022/03/19 04:41:36;;;;;;;26.33;12.82;;;;;;;6.86;71.16;103441.75;5071940;28;20040;-65
2022/03/19 04:44:02;;;;;;;22.10;11.25;;;;;;;6.84;71.18;103444.31;5071387;28;20060;-67
2022/03/19 04:46:28;;;;;;;24.45;12.00;;;;;;;6.80;71.33;103444.13;5051408;28;20068;-67
2022/03/19 04:48:54;;;;;;;23.65;12.13;;;;;;;6.83;71.47;103452.09;5072230;28;20032;-66
2022/03/19 04:51:22;;;;;;;22.05;13.02;;;;;;;6.64;72.36;103446.06;5073933;28;20025;-66
2022/03/19 04:53:50;;;;;;;24.30;11.43;;;;;;;6.81;71.55;103451.13;5074840;28;20048;-66
2022/03/19 04:56:24;;;;;;;22.48;11.48;;;;;;;6.75;71.77;103458.72;5074364;28;20036;-65
2022/03/19 04:58:55;;;;;;;22.20;12.10;;;;;;;6.80;71.54;103451.97;5074437;28;20024;-66
2022/03/19 05:01:21;;;;;;;20.95;10.70;;;;;;;6.85;71.48;103450.44;5073919;28;20076;-66
2022/03/19 05:03:47;;;;;;;17.65;9.10;;;;;;;6.90;71.16;103447.22;5074451;28;20056;-65
2022/03/19 05:06:12;;;;;;;20.50;10.90;;;;;;;6.93;70.99;103450.75;5076050;28;20437;-66
2022/03/19 05:08:38;;;;;;;20.70;10.65;;;;;;;6.74;71.65;103457.81;5075820;28;20123;-66
2022/03/19 05:11:12;;;;;;;18.05;8.65;;;;;;;6.72;71.69;103463.81;5075814;28;20446;-66
2022/03/19 05:13:45;;;;;;;15.88;8.95;;;;;;;6.68;71.93;103457.56;5072135;28;20106;-66
2022/03/19 05:16:12;;;;;;;15.43;7.78;;;;;;;6.76;71.57;103460.50;5074378;28;20131;-66
2022/03/19 05:18:37;;;;;;;21.92;9.40;;;;;;;6.81;71.35;103462.47;5038189;28;20033;-66
2022/03/19 05:21:04;;;;;;;18.67;9.00;;;;;;;6.80;71.44;103467.66;5059329;28;20373;-66
2022/03/19 05:23:29;;;;;;;28.77;10.52;;;;;;;6.80;71.45;103467.66;5073863;28;20032;-66
2022/03/19 05:25:55;;;;;;;27.33;11.15;;;;;;;6.73;71.97;103476.03;5074611;28;20039;-66
2022/03/19 05:28:21;;;;;;;23.65;11.27;;;;;;;6.65;72.29;103480.94;5076273;28;20083;-66
2022/03/19 05:30:49;;;;;;;24.88;10.30;;;;;;;6.67;72.21;103479.31;5074288;28;20064;-66
2022/03/19 05:33:15;;;;;;;19.15;9.35;;;;;;;6.66;72.28;103481.03;5075732;28;20048;-66
2022/03/19 05:35:42;;;;;;;24.08;9.05;;;;;;;6.69;72.09;103490.69;5074072;28;20446;-66
2022/03/19 05:38:08;;;;;;;17.73;8.15;;;;;;;6.69;72.08;103488.09;5073397;28;20472;-66
2022/03/19 05:40:33;;;;;;;22.67;9.25;;;;;;;6.54;72.71;103490.94;5073794;28;20082;-66
2022/03/19 05:42:59;;;;;;;23.27;8.55;;;;;;;6.54;72.85;103493.56;5076377;28;20036;-66
2022/03/19 05:45:24;;;;;;;27.48;9.48;;;;;;;6.38;73.25;103499.81;5076121;28;20032;-65
2022/03/19 05:47:50;;;;;;;19.05;7.93;;;;;;;6.19;73.96;103504.13;5071868;28;20102;-65
2022/03/19 05:50:17;;;;;;;12.82;7.57;;;;;;;6.17;74.05;103501.41;5073245;28;20406;-66
2022/03/19 05:52:45;;;;;;;13.50;7.28;;;;;;;6.25;73.42;103501.78;5056028;28;20131;-65
2022/03/19 05:55:11;;;;;;;13.68;7.50;;;;;;;6.23;73.64;103496.50;5072040;28;20072;-66
2022/03/19 05:57:36;;;;;;;19.20;8.60;;;;;;;6.33;73.10;103503.00;5072399;28;20039;-66
2022/03/19 06:00:07;;;;;;;27.63;8.40;;;;;;;6.27;73.67;103500.13;5075205;28;20028;-65
2022/03/19 06:02:38;;;;;;;17.00;6.75;;;;;;;6.15;74.12;103501.34;5069645;28;20033;-66
2022/03/19 06:05:03;;;;;;;17.88;7.32;;;;;;;6.03;74.70;103513.84;5071186;28;20060;-65
2022/03/19 06:07:29;;;;;;;19.42;8.15;;;;;;;6.01;74.66;103512.88;5067363;28;20064;-66
2022/03/19 06:09:54;;;;;;;17.50;7.47;;;;;;;6.01;74.72;103512.88;5075444;28;20380;-65
2022/03/19 06:12:21;;;;;;;19.63;6.00;;;;;;;6.10;74.23;103518.53;5075373;28;20060;-65
2022/03/19 06:14:46;;;;;;;13.38;6.70;;;;;;;6.21;73.80;103511.19;5074086;28;20753;-65
2022/03/19 06:17:12;;;;;;;29.33;7.85;;;;;;;6.12;74.36;103521.22;5074744;28;20111;-66
2022/03/19 06:19:37;;;;;;;24.20;7.72;;;;;;;5.98;74.93;103519.66;5075323;28;20078;-66
2022/03/19 06:22:03;;;;;;;16.95;6.13;;;;;;;6.11;74.26;103530.75;5074961;28;20388;-65
2022/03/19 06:24:28;;;;;;;16.10;6.47;;;;;;;6.25;73.96;103522.66;5075489;28;20158;-66
2022/03/19 06:26:53;;;;;;;20.38;7.28;;;;;;;6.34;73.43;103529.22;5074686;28;20024;-66
2022/03/19 06:29:19;;;;;;;25.90;8.43;;;;;;;6.45;73.09;103527.06;5074708;28;20036;-66
2022/03/19 06:31:45;;;;;;;35.47;9.65;;;;;;;6.39;73.55;103532.94;5072965;28;20048;-66
2022/03/19 06:34:10;;;;;;;28.20;8.07;;;;;;;6.41;74.04;103538.22;5071158;28;20129;-66
2022/03/19 06:39:19;;;;;;;17.67;8.25;;;;;;;6.51;73.15;103555.22;5074127;28;20094;-67
2022/03/19 06:41:45;;;;;;;15.75;7.82;;;;;;;6.57;72.44;103553.75;5074246;28;20060;-66
2022/03/19 06:44:10;;;;;;;15.02;6.70;;;;;;;6.35;73.44;103564.06;5074459;28;20029;-66
2022/03/19 06:46:36;;;;;;;14.65;6.75;;;;;;;6.35;73.41;103562.34;5074093;28;20047;-66
2022/03/19 06:49:01;;;;;;;20.17;7.43;;;;;;;6.35;73.54;103569.28;5055990;28;20491;-67
2022/03/19 06:51:27;;;;;;;20.27;7.70;;;;;;;6.43;73.06;103573.16;5074274;28;20037;-66
2022/03/19 06:53:52;;;;;;;12.77;6.38;;;;;;;6.52;72.56;103570.94;5074036;28;20383;-66
2022/03/19 06:56:18;;;;;;;19.38;10.80;;;;;;;6.53;72.41;103577.06;5073181;28;20454;-66
2022/03/19 06:58:43;;;;;;;18.05;9.63;;;;;;;6.50;72.47;103576.91;5073001;28;20047;-66
2022/03/19 07:01:14;;;;;;;14.63;7.93;;;;;;;6.42;72.99;103576.56;5072618;28;20037;-66
2022/03/19 07:03:42;;;;;;;15.27;7.13;;;;;;;6.49;72.71;103577.75;5073305;28;20035;-66
2022/03/19 07:06:08;;;;;;;13.73;7.43;;;;;;;6.40;72.89;103580.84;5073340;28;20036;-66
2022/03/19 07:08:33;;;;;;;17.58;7.63;;;;;;;6.40;72.82;103571.28;5074340;28;20115;-66
2022/03/19 07:10:59;;;;;;;13.95;6.78;;;;;;;6.58;72.03;103578.16;5073789;28;20059;-66
2022/03/19 07:13:24;;;;;;;20.90;9.02;;;;;;;6.64;72.04;103574.13;5074008;28;20114;-66
2022/03/19 07:15:50;;;;;;;16.15;7.65;;;;;;;6.69;72.24;103576.03;5074383;28;20036;-66
2022/03/19 07:18:16;;;;;;;21.63;7.75;;;;;;;6.50;72.82;103575.19;5073184;28;20504;-66
2022/03/19 07:20:41;;;;;;;15.93;7.47;;;;;;;6.63;72.13;103569.72;5072974;28;20482;-66
2022/03/19 07:23:07;;;;;;;20.67;8.55;;;;;;;6.61;72.59;103576.59;5073211;28;20062;-66
2022/03/19 07:25:37;;;;;;;19.85;9.48;;;;;;;6.66;72.33;103575.09;5072818;28;20043;-66
2022/03/19 07:28:09;;;;;;;21.70;10.88;;;;;;;6.45;73.52;103576.72;5073051;28;20024;-66
2022/03/19 07:30:35;;;;;;;21.40;9.40;;;;;;;6.57;73.34;103589.44;5072393;28;20032;-66
2022/03/19 07:33:01;;;;;;;23.80;9.23;;;;;;;6.57;73.16;103590.34;5056258;28;20459;-66
2022/03/19 07:35:27;;;;;;;19.67;9.20;;;;;;;6.33;74.47;103590.09;5073925;28;20064;-66
2022/03/19 07:37:53;;;;;;;22.13;9.15;;;;;;;6.58;73.43;103592.16;5072404;28;20029;-65
2022/03/19 07:43:06;;;;;;;20.23;10.15;;;;;;;6.39;74.80;103592.13;5073635;28;20085;-65
2022/03/19 07:45:31;;;;;;;23.60;10.50;;;;;;;6.49;74.46;103598.66;5073431;28;20032;-66
2022/03/19 07:47:57;;;;;;;23.45;10.77;;;;;;;6.56;74.14;103593.78;5073729;28;20039;-66
2022/03/19 07:50:23;;;;;;;18.25;9.50;;;;;;;6.69;73.17;103607.41;5072404;28;20032;-66
2022/03/19 07:52:48;;;;;;;21.30;10.48;;;;;;;6.64;73.54;103596.75;5073376;28;20452;-65
2022/03/19 07:55:14;;;;;;;17.67;8.80;;;;;;;6.93;72.40;103600.66;5073143;28;20053;-67
2022/03/19 07:57:39;;;;;;;15.18;7.68;;;;;;;6.81;72.57;103606.22;5070898;28;20029;-65
2022/03/19 08:00:05;;;;;;;13.40;6.03;;;;;;;6.72;72.70;103613.66;5072675;28;20503;-65
2022/03/19 08:02:31;;;;;;;18.70;7.43;;;;;;;6.57;73.14;103602.50;5071090;28;20040;-65
2022/03/19 08:04:58;;;;;;;16.35;6.85;;;;;;;6.70;72.92;103611.78;5072429;28;20032;-66
2022/03/19 08:07:24;;;;;;;10.43;5.53;;;;;;;6.69;72.95;103615.25;5068412;28;20113;-66
2022/03/19 08:09:49;;;;;;;9.82;5.45;;;;;;;6.68;72.52;103613.47;5067981;28;20067;-67
2022/03/19 08:12:15;;;;;;;12.40;6.13;;;;;;;6.83;71.97;103624.63;5066578;28;20413;-66
2022/03/19 08:14:40;;;;;;;12.80;5.82;;;;;;;6.82;71.58;103614.97;5072128;28;20040;-66
2022/03/19 08:17:06;;;;;;;13.98;6.10;;;;;;;7.00;71.58;103623.66;5072736;28;20399;-65
2022/03/19 08:19:32;;;;;;;8.10;4.38;;;;;;;7.15;71.06;103618.22;5071759;28;20040;-65
2022/03/19 08:21:57;;;;;;;13.50;6.15;;;;;;;7.04;71.83;103620.34;5071772;28;20037;-65
2022/03/19 08:24:25;;;;;;;13.55;6.18;;;;;;;7.15;71.11;103631.28;5075360;28;20119;-65
2022/03/19 08:26:53;;;;;;;10.45;5.13;;;;;;;7.14;71.04;103634.69;5076048;28;20048;-66
2022/03/19 08:29:23;;;;;;;9.98;5.10;;;;;;;6.97;71.59;103636.56;5076026;28;20056;-65
2022/03/19 08:31:52;;;;;;;10.77;5.18;;;;;;;6.98;71.40;103640.06;5075838;28;20029;-66
2022/03/19 08:34:17;;;;;;;11.95;4.90;;;;;;;7.08;70.94;103637.94;5059242;28;20114;-66
2022/03/19 08:36:43;;;;;;;8.57;4.53;;;;;;;7.16;70.94;103639.19;5076809;28;20431;-66
2022/03/19 08:41:53;;;;;;;8.32;4.20;;;;;;;7.34;70.02;103639.13;5077106;28;20036;-66
2022/03/19 08:44:19;;;;;;;10.57;4.47;;;;;;;7.35;70.05;103642.63;5075588;28;20035;-65
2022/03/19 08:46:44;;;;;;;11.23;5.38;;;;;;;7.42;70.00;103644.69;5076921;28;20040;-66
2022/03/19 08:49:10;;;;;;;12.95;5.63;;;;;;;7.40;70.05;103649.81;5076754;28;20035;-66
2022/03/19 08:51:41;;;;;;;10.73;4.85;;;;;;;7.37;70.35;103652.31;5077079;28;20086;-66
2022/03/19 08:54:12;;;;;;;9.88;4.85;;;;;;;7.42;70.24;103649.91;5075490;28;20074;-66
2022/03/19 08:56:38;;;;;;;7.90;4.65;;;;;;;7.47;69.99;103650.09;5075769;28;20468;-66
2022/03/19 08:59:04;;;;;;;7.93;4.18;;;;;;;7.46;69.73;103656.13;5058613;28;20067;-66
2022/03/19 09:01:31;;;;;;;9.57;4.85;;;;;;;7.48;69.82;103650.16;5076505;28;20067;-66
2022/03/19 09:03:57;;;;;;;10.23;4.97;;;;;;;7.47;69.29;103647.50;5076841;28;20083;-66
2022/03/19 09:06:22;;;;;;;8.45;3.83;;;;;;;7.61;69.02;103652.47;5059279;28;20483;-66
2022/03/19 09:08:49;;;;;;;8.90;5.07;;;;;;;7.83;68.27;103651.66;5076942;28;20033;-66
2022/03/19 09:11:19;;;;;;;8.63;4.07;;;;;;;7.83;68.06;103658.63;5075323;28;20109;-66
2022/03/19 09:13:48;;;;;;;6.88;4.18;;;;;;;7.83;67.94;103659.50;5075148;28;20036;-66
2022/03/19 09:16:15;;;;;;;7.03;4.18;;;;;;;7.82;67.78;103657.72;5076366;28;20055;-66
2022/03/19 09:18:41;;;;;;;7.25;4.00;;;;;;;8.03;66.97;103662.94;5058482;28;20101;-66
2022/03/19 09:21:06;;;;;;;10.57;4.32;;;;;;;8.02;66.60;103665.50;5076512;28;20048;-66
2022/03/19 09:23:32;;;;;;;7.28;3.65;;;;;;;7.97;66.94;103662.69;5076201;28;20035;-66
2022/03/19 09:25:58;;;;;;;8.57;3.65;;;;;;;7.99;66.83;103666.28;5076153;28;20115;-66
2022/03/19 09:28:23;;;;;;;6.93;3.80;;;;;;;8.03;66.90;103662.06;5075072;28;20063;-66
2022/03/19 09:30:49;;;;;;;7.60;4.28;;;;;;;8.13;66.59;103654.63;5076113;28;20116;-66
2022/03/19 09:33:14;;;;;;;5.80;3.65;;;;;;;8.25;66.39;103658.56;5076387;28;20032;-66
2022/03/19 09:35:41;;;;;;;8.48;4.78;;;;;;;8.43;65.75;103653.22;5075552;28;20448;-66
2022/03/19 09:38:06;;;;;;;11.80;5.78;;;;;;;8.47;65.57;103661.25;5074834;28;20128;-66
2022/03/19 09:40:32;;;;;;;8.40;4.10;;;;;;;8.49;65.40;103666.53;5074625;28;20112;-66
2022/03/19 09:42:58;;;;;;;8.32;3.67;;;;;;;8.54;65.09;103662.41;5074765;28;20070;-66
2022/03/19 09:45:26;;;;;;;6.22;4.03;;;;;;;8.42;65.44;103668.06;5075906;28;20040;-66
2022/03/19 09:47:54;;;;;;;7.05;3.58;;;;;;;8.58;65.16;103669.53;5074917;28;20041;-66
2022/03/19 09:50:20;;;;;;;7.32;4.50;;;;;;;8.59;65.21;103674.84;5074558;28;20082;-65
2022/03/19 09:52:51;;;;;;;8.77;4.05;;;;;;;8.65;64.86;103671.53;5074477;28;20027;-66
2022/03/19 09:55:17;;;;;;;9.38;4.03;;;;;;;8.49;65.21;103677.91;5074413;28;20543;-65
2022/03/19 09:57:44;;;;;;;8.15;3.88;;;;;;;8.31;65.66;103669.31;5057814;28;20035;-66
2022/03/19 10:00:11;;;;;;;6.50;3.65;;;;;;;8.33;65.66;103678.09;5057839;28;20799;-66
2022/03/19 10:03:03;;;;;;;6.60;3.80;;;;;;;8.17;66.44;103683.56;5057763;28;20033;-66
2022/03/19 10:08:37;;;;;;;6.68;4.13;;;;;;;7.86;67.54;103677.97;5075494;28;20035;-66
2022/03/19 10:11:03;;;;;;;8.30;5.05;;;;;;;7.92;67.31;103687.78;5075756;28;20035;-66
2022/03/19 10:13:29;;;;;;;6.82;4.50;;;;;;;7.99;67.13;103692.47;5057478;28;20400;-67
2022/03/19 10:15:54;;;;;;;7.28;3.63;;;;;;;8.06;66.81;103689.28;5075245;28;20032;-66
2022/03/19 10:18:28;;;;;;;7.97;5.43;;;;;;;8.09;66.54;103688.50;5074073;28;20024;-67
2022/03/19 10:20:55;;;;;;;9.77;5.20;;;;;;;8.13;66.69;103696.53;5073893;28;20078;-66
2022/03/19 10:23:39;;;;;;;7.70;3.85;;;;;;;8.18;66.85;103693.19;5075378;28;20465;-66
2022/03/19 10:26:05;;;;;;;6.82;4.47;;;;;;;8.27;66.32;103693.59;5074860;28;20033;-67
2022/03/19 10:28:34;;;;;;;7.90;4.57;;;;;;;8.24;66.29;103698.72;5074028;28;20029;-67
2022/03/19 10:31:00;;;;;;;7.85;4.80;;;;;;;8.32;66.11;103692.06;5073742;28;20020;-67
2022/03/19 10:33:27;;;;;;;7.57;5.07;;;;;;;8.24;66.20;103699.59;5075030;28;20491;-66
2022/03/19 10:36:13;;;;;;;5.60;3.90;;;;;;;8.15;66.56;103692.25;5057105;28;20480;-66
2022/03/19 10:38:46;;;;;;;7.80;4.32;;;;;;;8.17;66.54;103696.66;5073581;28;20083;-67
2022/03/19 10:41:17;;;;;;;7.68;4.55;;;;;;;8.14;66.39;103690.47;5073804;28;20195;-66
2022/03/19 10:43:46;;;;;;;8.63;5.32;;;;;;;8.13;66.62;103696.53;5073627;28;20052;-66
2022/03/19 10:46:12;;;;;;;6.10;4.47;;;;;;;8.08;66.67;103691.94;5072869;28;20039;-66
2022/03/19 10:48:38;;;;;;;7.50;4.93;;;;;;;8.07;66.62;103693.69;5074898;28;20025;-67
2022/03/19 10:51:08;;;;;;;8.43;4.60;;;;;;;8.07;66.53;103691.06;5073502;28;20039;-66
2022/03/19 10:53:35;;;;;;;9.02;5.28;;;;;;;8.24;66.16;103701.31;5056771;28;20044;-66
2022/03/19 10:56:01;;;;;;;6.45;4.13;;;;;;;8.30;66.06;103693.72;5056817;28;20036;-66
2022/03/19 10:58:30;;;;;;;10.45;6.18;;;;;;;8.31;65.86;103695.50;5074406;28;20411;-66
2022/03/19 11:00:59;;;;;;;8.15;4.60;;;;;;;8.30;65.77;103693.72;5073313;28;20052;-66
2022/03/19 11:03:27;;;;;;;9.02;4.78;;;;;;;8.31;65.47;103690.28;5073228;28;20119;-66
2022/03/19 11:05:57;;;;;;;9.52;5.25;;;;;;;8.17;66.05;103696.66;5073175;28;20033;-66
2022/03/19 11:08:24;;;;;;;9.02;5.15;;;;;;;8.29;65.54;103692.81;5073038;28;20082;-66
2022/03/19 11:10:52;;;;;;;8.93;5.50;;;;;;;8.47;64.91;103697.94;5056523;28;20036;-67
2022/03/19 11:13:22;;;;;;;8.88;4.97;;;;;;;8.39;65.08;103694.13;5073171;28;20460;-66
2022/03/19 11:15:55;;;;;;;11.18;7.70;;;;;;;8.63;63.98;103692.47;5056406;28;20503;-66
2022/03/19 11:18:22;;;;;;;13.32;8.60;;;;;;;8.94;63.39;103691.03;5074179;28;20495;-66
2022/03/19 11:20:49;;;;;;;15.32;9.10;;;;;;;9.13;62.67;103692.59;5072806;28;20060;-66
2022/03/19 11:23:21;;;;;;;11.60;7.47;;;;;;;9.43;61.94;103682.31;5074061;28;20036;-66
2022/03/19 11:25:56;;;;;;;10.73;7.93;;;;;;;9.69;60.83;103687.56;5073021;28;20017;-67
2022/03/19 11:28:22;;;;;;;13.05;7.97;;;;;;;9.87;60.55;103685.59;5074261;28;20089;-66
2022/03/19 11:31:07;;;;;;;15.52;7.75;;;;;;;10.05;59.15;103675.72;5056028;28;20087;-66
2022/03/19 11:33:35;;;;;;;10.00;5.53;;;;;;;10.14;59.71;103680.38;5073945;28;20082;-67
2022/03/19 11:36:01;;;;;;;8.68;6.07;;;;;;;10.24;59.31;103671.91;5072794;28;20102;-66
2022/03/19 11:38:27;;;;;;;11.13;6.85;;;;;;;10.41;58.63;103674.22;5073959;28;20468;-64